Indiavai, Brazil
Current Conditions -  °F | °C
As of 6:00 PM on Monday 24 Nov 2014 (Local Time) from SBCY Reporting Station
Scattered Clouds Scattered Clouds  
Wind Chill: 91°   Ceiling: Unl
Heat Index: 98°   Visibility: 6mi
Dew Point: 72°   Wind: 8mph
Humidity: 52%   Direction: 350°N
Pressure: 29.71"   Gusts: NA
Location:  15.49°S, 58.57°W
Report Text: SBCY 242100Z 35007KT 9999 FEW020 SCT100 33/22 Q1006
Loading
Personal Weather Stations






























Interactive Weather Map New forecast layout! Learn more

10-Day Weather Forecast

Advertisements
Track Severe Weather on mobile